sensor_id;sensor_type;location;lat;lon;timestamp;pressure;altitude;pressure_sealevel;temperature
53667;BMP280;39568;51.026;5.468;2023-07-13T00:01:34;100649.47;;;15.28
53667;BMP280;39568;51.026;5.468;2023-07-13T00:04:05;100649.31;;;15.13
53667;BMP280;39568;51.026;5.468;2023-07-13T00:06:52;100653.50;;;15.08
53667;BMP280;39568;51.026;5.468;2023-07-13T00:09:48;100660.53;;;14.98
53667;BMP280;39568;51.026;5.468;2023-07-13T00:12:40;100668.84;;;15.08
53667;BMP280;39568;51.026;5.468;2023-07-13T00:15:31;100659.19;;;15.18
53667;BMP280;39568;51.026;5.468;2023-07-13T00:18:16;100667.72;;;15.29
53667;BMP280;39568;51.026;5.468;2023-07-13T00:20:59;100649.19;;;15.18
53667;BMP280;39568;51.026;5.468;2023-07-13T00:23:36;100660.19;;;15.28
53667;BMP280;39568;51.026;5.468;2023-07-13T00:29:13;100651.66;;;15.16
53667;BMP280;39568;51.026;5.468;2023-07-13T00:31:50;100658.97;;;15.03
53667;BMP280;39568;51.026;5.468;2023-07-13T00:34:23;100646.75;;;14.94
53667;BMP280;39568;51.026;5.468;2023-07-13T00:37:09;100673.53;;;15.07
53667;BMP280;39568;51.026;5.468;2023-07-13T00:40:02;100668.34;;;14.96
53667;BMP280;39568;51.026;5.468;2023-07-13T00:42:46;100678.03;;;14.99
53667;BMP280;39568;51.026;5.468;2023-07-13T00:48:39;100676.50;;;14.91
53667;BMP280;39568;51.026;5.468;2023-07-13T00:51:20;100661.66;;;14.76
53667;BMP280;39568;51.026;5.468;2023-07-13T00:54:43;100669.09;;;14.70
53667;BMP280;39568;51.026;5.468;2023-07-13T00:57:40;100668.97;;;14.76
53667;BMP280;39568;51.026;5.468;2023-07-13T01:00:29;100678.69;;;14.79
53667;BMP280;39568;51.026;5.468;2023-07-13T01:03:51;100660.09;;;14.68
53667;BMP280;39568;51.026;5.468;2023-07-13T01:06:27;100651.56;;;14.69
53667;BMP280;39568;51.026;5.468;2023-07-13T01:09:14;100677.66;;;14.82
53667;BMP280;39568;51.026;5.468;2023-07-13T01:12:34;100667.16;;;14.84
53667;BMP280;39568;51.026;5.468;2023-07-13T01:15:00;100667.84;;;14.98
53667;BMP280;39568;51.026;5.468;2023-07-13T01:17:48;100662.50;;;14.98
53667;BMP280;39568;51.026;5.468;2023-07-13T01:20:32;100664.38;;;14.90
53667;BMP280;39568;51.026;5.468;2023-07-13T01:23:25;100701.44;;;15.12
53667;BMP280;39568;51.026;5.468;2023-07-13T01:26:11;100672.69;;;14.99
53667;BMP280;39568;51.026;5.468;2023-07-13T01:28:46;100690.63;;;15.04
53667;BMP280;39568;51.026;5.468;2023-07-13T01:31:51;100671.69;;;14.89
53667;BMP280;39568;51.026;5.468;2023-07-13T01:34:36;100692.56;;;15.04
53667;BMP280;39568;51.026;5.468;2023-07-13T01:37:18;100672.91;;;14.88
53667;BMP280;39568;51.026;5.468;2023-07-13T01:40:19;100696.81;;;14.86
53667;BMP280;39568;51.026;5.468;2023-07-13T01:43:00;100670.22;;;14.75
53667;BMP280;39568;51.026;5.468;2023-07-13T01:45:54;100691.78;;;14.83
53667;BMP280;39568;51.026;5.468;2023-07-13T01:48:22;100674.03;;;14.66
53667;BMP280;39568;51.026;5.468;2023-07-13T01:51:22;100696.72;;;14.79
53667;BMP280;39568;51.026;5.468;2023-07-13T01:54:13;100675.69;;;14.69
53667;BMP280;39568;51.026;5.468;2023-07-13T01:56:55;100665.91;;;14.72
53667;BMP280;39568;51.026;5.468;2023-07-13T01:59:29;100673.53;;;14.81
53667;BMP280;39568;51.026;5.468;2023-07-13T02:02:24;100691.47;;;14.86
53667;BMP280;39568;51.026;5.468;2023-07-13T02:05:02;100658.16;;;14.55
53667;BMP280;39568;51.026;5.468;2023-07-13T02:07:41;100662.50;;;14.71
53667;BMP280;39568;51.026;5.468;2023-07-13T02:10:17;100686.81;;;14.87
53667;BMP280;39568;51.026;5.468;2023-07-13T02:12:57;100664.88;;;14.75
53667;BMP280;39568;51.026;5.468;2023-07-13T02:16:07;100684.66;;;14.85
53667;BMP280;39568;51.026;5.468;2023-07-13T02:18:54;100665.91;;;14.72
53667;BMP280;39568;51.026;5.468;2023-07-13T02:21:29;100670.72;;;14.60
53667;BMP280;39568;51.026;5.468;2023-07-13T02:24:08;100692.69;;;14.72
53667;BMP280;39568;51.026;5.468;2023-07-13T02:26:54;100698.25;;;14.87
53667;BMP280;39568;51.026;5.468;2023-07-13T02:29:58;100668.47;;;14.64
53667;BMP280;39568;51.026;5.468;2023-07-13T02:32:37;100673.72;;;14.70
53667;BMP280;39568;51.026;5.468;2023-07-13T02:35:13;100696.28;;;14.74
53667;BMP280;39568;51.026;5.468;2023-07-13T02:37:47;100696.28;;;14.74
53667;BMP280;39568;51.026;5.468;2023-07-13T02:40:33;100682.50;;;14.70
53667;BMP280;39568;51.026;5.468;2023-07-13T02:43:09;100700.59;;;14.64
53667;BMP280;39568;51.026;5.468;2023-07-13T02:49:13;100673.97;;;14.40
53667;BMP280;39568;51.026;5.468;2023-07-13T02:54:47;100678.22;;;14.49
53667;BMP280;39568;51.026;5.468;2023-07-13T02:57:27;100668.78;;;14.48
53667;BMP280;39568;51.026;5.468;2023-07-13T03:00:10;100699.97;;;14.58
53667;BMP280;39568;51.026;5.468;2023-07-13T03:03:02;100694.44;;;14.69
53667;BMP280;39568;51.026;5.468;2023-07-13T03:05:45;100706.28;;;14.87
53667;BMP280;39568;51.026;5.468;2023-07-13T03:08:48;100689.06;;;14.69
53667;BMP280;39568;51.026;5.468;2023-07-13T03:11:32;100703.91;;;14.84
53667;BMP280;39568;51.026;5.468;2023-07-13T03:14:47;100689.56;;;14.68
53667;BMP280;39568;51.026;5.468;2023-07-13T03:17:19;100696.91;;;14.81
53667;BMP280;39568;51.026;5.468;2023-07-13T03:20:37;100698.97;;;14.88
53667;BMP280;39568;51.026;5.468;2023-07-13T03:23:03;100717.81;;;15.08
53667;BMP280;39568;51.026;5.468;2023-07-13T03:25:43;100698.97;;;15.01
53667;BMP280;39568;51.026;5.468;2023-07-13T03:28:23;100699.38;;;14.92
53667;BMP280;39568;51.026;5.468;2023-07-13T03:31:14;100694.84;;;15.00
53667;BMP280;39568;51.026;5.468;2023-07-13T03:33:51;100700.84;;;15.06
53667;BMP280;39568;51.026;5.468;2023-07-13T03:36:31;100707.75;;;15.01
53667;BMP280;39568;51.026;5.468;2023-07-13T03:39:13;100710.72;;;14.98
53667;BMP280;39568;51.026;5.468;2023-07-13T03:41:55;100730.28;;;15.19
53667;BMP280;39568;51.026;5.468;2023-07-13T03:44:36;100747.44;;;15.29
53667;BMP280;39568;51.026;5.468;2023-07-13T03:47:21;100718.16;;;15.05
53667;BMP280;39568;51.026;5.468;2023-07-13T03:50:03;100725.56;;;15.12
53667;BMP280;39568;51.026;5.468;2023-07-13T03:52:38;100721.03;;;15.07
53667;BMP280;39568;51.026;5.468;2023-07-13T03:55:30;100720.22;;;14.99
53667;BMP280;39568;51.026;5.468;2023-07-13T03:58:30;100710.31;;;15.07
53667;BMP280;39568;51.026;5.468;2023-07-13T04:01:12;100709.38;;;15.17
53667;BMP280;39568;51.026;5.468;2023-07-13T04:03:44;100713.59;;;15.26
53667;BMP280;39568;51.026;5.468;2023-07-13T04:06:35;100709.88;;;15.03
53667;BMP280;39568;51.026;5.468;2023-07-13T04:09:42;100717.09;;;15.21
53667;BMP280;39568;51.026;5.468;2023-07-13T04:12:24;100724.44;;;15.33
53667;BMP280;39568;51.026;5.468;2023-07-13T04:15:03;100729.38;;;15.29
53667;BMP280;39568;51.026;5.468;2023-07-13T04:17:56;100731.13;;;15.14
53667;BMP280;39568;51.026;5.468;2023-07-13T04:20:40;100757.50;;;15.36
53667;BMP280;39568;51.026;5.468;2023-07-13T04:23:14;100728.66;;;15.29
53667;BMP280;39568;51.026;5.468;2023-07-13T04:26:14;100752.75;;;15.55
53667;BMP280;39568;51.026;5.468;2023-07-13T04:29:02;100722.44;;;15.34
53667;BMP280;39568;51.026;5.468;2023-07-13T04:32:05;100737.50;;;15.37
53667;BMP280;39568;51.026;5.468;2023-07-13T04:35:04;100745.56;;;15.37
53667;BMP280;39568;51.026;5.468;2023-07-13T04:37:50;100733.69;;;15.32
53667;BMP280;39568;51.026;5.468;2023-07-13T04:40:40;100734.19;;;15.44
53667;BMP280;39568;51.026;5.468;2023-07-13T04:43:25;100754.81;;;15.49
53667;BMP280;39568;51.026;5.468;2023-07-13T04:46:02;100748.44;;;15.26
53667;BMP280;39568;51.026;5.468;2023-07-13T04:49:05;100754.59;;;15.47
53667;BMP280;39568;51.026;5.468;2023-07-13T04:52:00;100752.00;;;15.55
53667;BMP280;39568;51.026;5.468;2023-07-13T04:54:33;100753.06;;;15.38
53667;BMP280;39568;51.026;5.468;2023-07-13T04:57:03;100771.50;;;15.68
53667;BMP280;39568;51.026;5.468;2023-07-13T05:02:28;100763.47;;;15.55
53667;BMP280;39568;51.026;5.468;2023-07-13T05:05:12;100756.25;;;15.50
53667;BMP280;39568;51.026;5.468;2023-07-13T05:09:44;100783.03;;;15.76
53667;BMP280;39568;51.026;5.468;2023-07-13T05:11:37;100783.44;;;15.80
53667;BMP280;39568;51.026;5.468;2023-07-13T05:14:08;100780.47;;;15.71
53667;BMP280;39568;51.026;5.468;2023-07-13T05:16:39;100768.84;;;15.68
53667;BMP280;39568;51.026;5.468;2023-07-13T05:19:22;100785.09;;;15.83
53667;BMP280;39568;51.026;5.468;2023-07-13T05:22:23;100765.72;;;15.64
53667;BMP280;39568;51.026;5.468;2023-07-13T05:25:10;100775.91;;;15.66
53667;BMP280;39568;51.026;5.468;2023-07-13T05:27:52;100789.13;;;15.77
53667;BMP280;39568;51.026;5.468;2023-07-13T05:30:52;100778.78;;;15.81
53667;BMP280;39568;51.026;5.468;2023-07-13T05:33:26;100798.69;;;15.85
53667;BMP280;39568;51.026;5.468;2023-07-13T05:36:28;100766.53;;;15.72
53667;BMP280;39568;51.026;5.468;2023-07-13T05:39:30;100804.81;;;16.06
53667;BMP280;39568;51.026;5.468;2023-07-13T05:42:24;100774.94;;;15.89
53667;BMP280;39568;51.026;5.468;2023-07-13T05:45:11;100791.75;;;15.90
53667;BMP280;39568;51.026;5.468;2023-07-13T05:47:48;100780.56;;;15.78
53667;BMP280;39568;51.026;5.468;2023-07-13T05:50:27;100790.22;;;15.94
53667;BMP280;39568;51.026;5.468;2023-07-13T05:53:17;100788.31;;;16.02
53667;BMP280;39568;51.026;5.468;2023-07-13T05:55:58;100794.50;;;16.10
53667;BMP280;39568;51.026;5.468;2023-07-13T05:58:30;100817.00;;;16.07
53667;BMP280;39568;51.026;5.468;2023-07-13T06:01:10;100795.88;;;16.04
53667;BMP280;39568;51.026;5.468;2023-07-13T06:03:55;100809.69;;;16.29
53667;BMP280;39568;51.026;5.468;2023-07-13T06:06:55;100793.53;;;16.21
53667;BMP280;39568;51.026;5.468;2023-07-13T06:09:25;100823.09;;;16.42
53667;BMP280;39568;51.026;5.468;2023-07-13T06:12:36;100804.84;;;16.27
53667;BMP280;39568;51.026;5.468;2023-07-13T06:18:34;100839.97;;;16.50
53667;BMP280;39568;51.026;5.468;2023-07-13T06:21:21;100831.16;;;16.42
53667;BMP280;39568;51.026;5.468;2023-07-13T06:24:01;100825.31;;;16.30
53667;BMP280;39568;51.026;5.468;2023-07-13T06:26:50;100843.78;;;16.54
53667;BMP280;39568;51.026;5.468;2023-07-13T06:29:38;100845.94;;;16.56
53667;BMP280;39568;51.026;5.468;2023-07-13T06:32:21;100833.84;;;16.62
53667;BMP280;39568;51.026;5.468;2023-07-13T06:35:02;100830.44;;;16.62
53667;BMP280;39568;51.026;5.468;2023-07-13T06:37:51;100829.47;;;16.80
53667;BMP280;39568;51.026;5.468;2023-07-13T06:40:26;100837.47;;;16.93
53667;BMP280;39568;51.026;5.468;2023-07-13T06:46:24;100860.56;;;16.88
53667;BMP280;39568;51.026;5.468;2023-07-13T06:48:57;100844.94;;;16.87
53667;BMP280;39568;51.026;5.468;2023-07-13T06:51:51;100841.41;;;16.92
53667;BMP280;39568;51.026;5.468;2023-07-13T06:54:29;100861.38;;;17.04
53667;BMP280;39568;51.026;5.468;2023-07-13T06:57:29;100838.63;;;17.05
53667;BMP280;39568;51.026;5.468;2023-07-13T07:00:23;100855.56;;;17.21
53667;BMP280;39568;51.026;5.468;2023-07-13T07:03:01;100859.84;;;17.44
53667;BMP280;39568;51.026;5.468;2023-07-13T07:05:41;100855.38;;;17.47
53667;BMP280;39568;51.026;5.468;2023-07-13T07:08:30;100851.13;;;17.59
53667;BMP280;39568;51.026;5.468;2023-07-13T07:11:11;100857.06;;;17.65
53667;BMP280;39568;51.026;5.468;2023-07-13T07:13:58;100848.56;;;17.53
53667;BMP280;39568;51.026;5.468;2023-07-13T07:16:35;100860.78;;;17.54
53667;BMP280;39568;51.026;5.468;2023-07-13T07:22:38;100857.66;;;17.79
53667;BMP280;39568;51.026;5.468;2023-07-13T07:25:19;100849.66;;;17.58
53667;BMP280;39568;51.026;5.468;2023-07-13T07:28:14;100887.56;;;17.67
53667;BMP280;39568;51.026;5.468;2023-07-13T07:31:06;100868.72;;;17.67
53667;BMP280;39568;51.026;5.468;2023-07-13T07:33:38;100870.94;;;17.84
53667;BMP280;39568;51.026;5.468;2023-07-13T07:36:27;100854.44;;;17.44
53667;BMP280;39568;51.026;5.468;2023-07-13T07:44:55;100879.88;;;17.72
53667;BMP280;39568;51.026;5.468;2023-07-13T07:47:50;100880.59;;;18.23
53667;BMP280;39568;51.026;5.468;2023-07-13T07:50:32;100875.13;;;18.08
53667;BMP280;39568;51.026;5.468;2023-07-13T07:56:21;100875.09;;;17.93
53667;BMP280;39568;51.026;5.468;2023-07-13T07:59:07;100888.31;;;18.19
53667;BMP280;39568;51.026;5.468;2023-07-13T08:01:41;100887.94;;;18.15
53667;BMP280;39568;51.026;5.468;2023-07-13T08:07:21;100894.09;;;18.53
53667;BMP280;39568;51.026;5.468;2023-07-13T08:10:29;100881.50;;;19.08
53667;BMP280;39568;51.026;5.468;2023-07-13T08:13:05;100882.75;;;19.07
53667;BMP280;39568;51.026;5.468;2023-07-13T08:15:46;100893.19;;;19.11
53667;BMP280;39568;51.026;5.468;2023-07-13T08:18:29;100890.63;;;19.13
53667;BMP280;39568;51.026;5.468;2023-07-13T08:21:16;100885.94;;;19.28
53667;BMP280;39568;51.026;5.468;2023-07-13T08:23:57;100901.19;;;19.41
53667;BMP280;39568;51.026;5.468;2023-07-13T08:26:34;100906.41;;;19.39
53667;BMP280;39568;51.026;5.468;2023-07-13T08:29:17;100879.25;;;19.29
53667;BMP280;39568;51.026;5.468;2023-07-13T08:32:04;100877.25;;;19.38
53667;BMP280;39568;51.026;5.468;2023-07-13T08:34:55;100874.41;;;19.36
53667;BMP280;39568;51.026;5.468;2023-07-13T08:37:51;100888.22;;;19.47
53667;BMP280;39568;51.026;5.468;2023-07-13T08:40:40;100875.66;;;19.35
53667;BMP280;39568;51.026;5.468;2023-07-13T08:43:29;100883.59;;;19.80
53667;BMP280;39568;51.026;5.468;2023-07-13T08:46:17;100891.16;;;20.13
53667;BMP280;39568;51.026;5.468;2023-07-13T08:52:21;100878.09;;;20.27
53667;BMP280;39568;51.026;5.468;2023-07-13T08:55:31;100862.16;;;19.82
53667;BMP280;39568;51.026;5.468;2023-07-13T08:58:35;100877.75;;;19.91
53667;BMP280;39568;51.026;5.468;2023-07-13T09:01:53;100890.22;;;19.86
53667;BMP280;39568;51.026;5.468;2023-07-13T09:08:00;100881.66;;;20.05
53667;BMP280;39568;51.026;5.468;2023-07-13T09:10:58;100858.22;;;20.07
53667;BMP280;39568;51.026;5.468;2023-07-13T09:14:10;100891.44;;;20.25
53667;BMP280;39568;51.026;5.468;2023-07-13T09:16:53;100894.66;;;20.24
53667;BMP280;39568;51.026;5.468;2023-07-13T09:20:06;100888.69;;;20.50
53667;BMP280;39568;51.026;5.468;2023-07-13T09:23:21;100888.16;;;20.51
53667;BMP280;39568;51.026;5.468;2023-07-13T09:26:14;100901.53;;;20.66
53667;BMP280;39568;51.026;5.468;2023-07-13T09:29:26;100896.94;;;20.59
53667;BMP280;39568;51.026;5.468;2023-07-13T09:32:02;100904.59;;;20.46
53667;BMP280;39568;51.026;5.468;2023-07-13T09:34:43;100906.28;;;20.41
53667;BMP280;39568;51.026;5.468;2023-07-13T09:37:39;100881.31;;;20.50
53667;BMP280;39568;51.026;5.468;2023-07-13T09:40:42;100879.31;;;21.27
53667;BMP280;39568;51.026;5.468;2023-07-13T09:43:29;100880.56;;;21.69
53667;BMP280;39568;51.026;5.468;2023-07-13T09:46:02;100900.63;;;21.57
53667;BMP280;39568;51.026;5.468;2023-07-13T09:49:13;100897.47;;;21.17
53667;BMP280;39568;51.026;5.468;2023-07-13T09:52:10;100878.94;;;20.96
53667;BMP280;39568;51.026;5.468;2023-07-13T09:54:49;100892.06;;;21.17
53667;BMP280;39568;51.026;5.468;2023-07-13T09:57:33;100908.34;;;22.23
53667;BMP280;39568;51.026;5.468;2023-07-13T10:00:21;100887.91;;;21.76
53667;BMP280;39568;51.026;5.468;2023-07-13T10:03:14;100895.25;;;22.39
53667;BMP280;39568;51.026;5.468;2023-07-13T10:06:24;100913.84;;;23.57
53667;BMP280;39568;51.026;5.468;2023-07-13T10:09:02;100913.47;;;22.94
53667;BMP280;39568;51.026;5.468;2023-07-13T10:11:43;100899.75;;;23.30
53667;BMP280;39568;51.026;5.468;2023-07-13T10:14:37;100891.22;;;24.25
53667;BMP280;39568;51.026;5.468;2023-07-13T10:20:24;100917.31;;;23.29
53667;BMP280;39568;51.026;5.468;2023-07-13T10:23:24;100892.03;;;22.88
53667;BMP280;39568;51.026;5.468;2023-07-13T10:26:13;100901.31;;;22.85
53667;BMP280;39568;51.026;5.468;2023-07-13T10:29:34;100901.47;;;22.97
53667;BMP280;39568;51.026;5.468;2023-07-13T10:32:49;100893.13;;;22.47
53667;BMP280;39568;51.026;5.468;2023-07-13T10:35:39;100914.19;;;23.82
53667;BMP280;39568;51.026;5.468;2023-07-13T10:38:45;100897.56;;;24.60
53667;BMP280;39568;51.026;5.468;2023-07-13T10:41:38;100909.03;;;24.38
53667;BMP280;39568;51.026;5.468;2023-07-13T10:44:24;100901.56;;;24.17
53667;BMP280;39568;51.026;5.468;2023-07-13T10:47:08;100905.66;;;23.97
53667;BMP280;39568;51.026;5.468;2023-07-13T10:50:15;100899.44;;;23.07
53667;BMP280;39568;51.026;5.468;2023-07-13T10:53:00;100910.66;;;24.52
53667;BMP280;39568;51.026;5.468;2023-07-13T10:55:54;100881.56;;;24.55
53667;BMP280;39568;51.026;5.468;2023-07-13T10:58:37;100920.75;;;24.40
53667;BMP280;39568;51.026;5.468;2023-07-13T11:01:20;100892.13;;;24.18
53667;BMP280;39568;51.026;5.468;2023-07-13T11:04:03;100904.00;;;23.92
53667;BMP280;39568;51.026;5.468;2023-07-13T11:06:50;100907.22;;;25.06
53667;BMP280;39568;51.026;5.468;2023-07-13T11:09:56;100897.31;;;24.05
53667;BMP280;39568;51.026;5.468;2023-07-13T11:12:51;100924.50;;;24.56
53667;BMP280;39568;51.026;5.468;2023-07-13T11:15:53;100926.94;;;24.95
53667;BMP280;39568;51.026;5.468;2023-07-13T11:18:31;100905.69;;;23.47
53667;BMP280;39568;51.026;5.468;2023-07-13T11:21:52;100890.75;;;23.18
53667;BMP280;39568;51.026;5.468;2023-07-13T11:25:20;100894.34;;;23.70
53667;BMP280;39568;51.026;5.468;2023-07-13T11:28:25;100891.25;;;24.79
53667;BMP280;39568;51.026;5.468;2023-07-13T11:31:25;100908.44;;;24.60
53667;BMP280;39568;51.026;5.468;2023-07-13T11:34:07;100918.56;;;25.02
53667;BMP280;39568;51.026;5.468;2023-07-13T11:36:56;100908.44;;;24.82
53667;BMP280;39568;51.026;5.468;2023-07-13T11:40:04;100911.13;;;25.70
53667;BMP280;39568;51.026;5.468;2023-07-13T11:45:23;100912.66;;;26.44
53667;BMP280;39568;51.026;5.468;2023-07-13T11:48:01;100897.56;;;26.55
53667;BMP280;39568;51.026;5.468;2023-07-13T11:50:56;100879.81;;;24.59
53667;BMP280;39568;51.026;5.468;2023-07-13T11:54:05;100904.56;;;25.29
53667;BMP280;39568;51.026;5.468;2023-07-13T11:57:56;100905.78;;;25.83
53667;BMP280;39568;51.026;5.468;2023-07-13T11:59:45;100896.50;;;24.87
53667;BMP280;39568;51.026;5.468;2023-07-13T12:05:41;100902.75;;;24.05
53667;BMP280;39568;51.026;5.468;2023-07-13T12:08:49;100915.69;;;24.89
53667;BMP280;39568;51.026;5.468;2023-07-13T12:11:18;100921.66;;;25.64
53667;BMP280;39568;51.026;5.468;2023-07-13T12:13:46;100900.69;;;25.78
53667;BMP280;39568;51.026;5.468;2023-07-13T12:16:17;100912.25;;;24.25
53667;BMP280;39568;51.026;5.468;2023-07-13T12:18:55;100902.75;;;23.34
53667;BMP280;39568;51.026;5.468;2023-07-13T12:21:28;100907.88;;;23.11
53667;BMP280;39568;51.026;5.468;2023-07-13T12:24:03;100919.59;;;23.04
53667;BMP280;39568;51.026;5.468;2023-07-13T12:26:33;100910.16;;;23.24
53667;BMP280;39568;51.026;5.468;2023-07-13T12:29:01;100925.00;;;22.84
53667;BMP280;39568;51.026;5.468;2023-07-13T12:31:34;100920.47;;;23.16
53667;BMP280;39568;51.026;5.468;2023-07-13T12:34:05;100916.16;;;24.43
53667;BMP280;39568;51.026;5.468;2023-07-13T12:36:34;100918.44;;;25.44
53667;BMP280;39568;51.026;5.468;2023-07-13T12:39:12;100920.50;;;25.67
53667;BMP280;39568;51.026;5.468;2023-07-13T12:41:42;100899.16;;;25.63
53667;BMP280;39568;51.026;5.468;2023-07-13T12:44:12;100905.44;;;24.66
53667;BMP280;39568;51.026;5.468;2023-07-13T12:46:39;100912.19;;;24.13
53667;BMP280;39568;51.026;5.468;2023-07-13T12:49:07;100908.69;;;23.51
53667;BMP280;39568;51.026;5.468;2023-07-13T12:51:34;100922.72;;;23.38
53667;BMP280;39568;51.026;5.468;2023-07-13T12:54:14;100911.00;;;23.26
53667;BMP280;39568;51.026;5.468;2023-07-13T12:56:42;100918.03;;;23.29
53667;BMP280;39568;51.026;5.468;2023-07-13T12:59:16;100916.63;;;23.09
53667;BMP280;39568;51.026;5.468;2023-07-13T13:01:45;100908.63;;;23.21
53667;BMP280;39568;51.026;5.468;2023-07-13T13:04:12;100913.59;;;23.24
53667;BMP280;39568;51.026;5.468;2023-07-13T13:06:39;100922.28;;;23.32
53667;BMP280;39568;51.026;5.468;2023-07-13T13:09:14;100924.91;;;23.80
53667;BMP280;39568;51.026;5.468;2023-07-13T13:11:42;100931.56;;;24.50
53667;BMP280;39568;51.026;5.468;2023-07-13T13:14:08;100916.91;;;23.82
53667;BMP280;39568;51.026;5.468;2023-07-13T13:16:45;100927.88;;;23.15
53667;BMP280;39568;51.026;5.468;2023-07-13T13:19:18;100934.88;;;22.99
53667;BMP280;39568;51.026;5.468;2023-07-13T13:21:47;100931.19;;;22.95
53667;BMP280;39568;51.026;5.468;2023-07-13T13:24:19;100936.75;;;23.06
53667;BMP280;39568;51.026;5.468;2023-07-13T13:26:50;100935.28;;;22.76
53667;BMP280;39568;51.026;5.468;2023-07-13T13:29:20;100957.53;;;22.65
53667;BMP280;39568;51.026;5.468;2023-07-13T13:31:50;100963.59;;;20.81
53667;BMP280;39568;51.026;5.468;2023-07-13T13:34:18;100970.50;;;19.86
53667;BMP280;39568;51.026;5.468;2023-07-13T13:36:48;100980.69;;;19.63
53667;BMP280;39568;51.026;5.468;2023-07-13T13:39:20;100979.09;;;19.29
53667;BMP280;39568;51.026;5.468;2023-07-13T13:41:49;100976.41;;;18.84
53667;BMP280;39568;51.026;5.468;2023-07-13T13:44:18;100983.19;;;18.55
53667;BMP280;39568;51.026;5.468;2023-07-13T13:46:47;100980.25;;;18.30
53667;BMP280;39568;51.026;5.468;2023-07-13T13:49:19;100977.38;;;18.28
53667;BMP280;39568;51.026;5.468;2023-07-13T13:51:46;100984.00;;;18.27
53667;BMP280;39568;51.026;5.468;2023-07-13T13:54:14;100981.56;;;18.44
53667;BMP280;39568;51.026;5.468;2023-07-13T13:56:44;100999.00;;;18.59
53667;BMP280;39568;51.026;5.468;2023-07-13T13:59:11;100979.59;;;18.45
53667;BMP280;39568;51.026;5.468;2023-07-13T14:01:39;100990.00;;;18.41
53667;BMP280;39568;51.026;5.468;2023-07-13T14:04:09;100984.47;;;18.62
53667;BMP280;39568;51.026;5.468;2023-07-13T14:06:39;100983.19;;;18.55
53667;BMP280;39568;51.026;5.468;2023-07-13T14:09:08;100976.72;;;18.58
53667;BMP280;39568;51.026;5.468;2023-07-13T14:11:37;100977.88;;;18.85
53667;BMP280;39568;51.026;5.468;2023-07-13T14:14:08;100982.88;;;18.89
53667;BMP280;39568;51.026;5.468;2023-07-13T14:16:37;100989.53;;;18.95
53667;BMP280;39568;51.026;5.468;2023-07-13T14:19:03;100984.34;;;19.12
53667;BMP280;39568;51.026;5.468;2023-07-13T14:21:30;100979.84;;;19.07
53667;BMP280;39568;51.026;5.468;2023-07-13T14:23:59;100988.81;;;18.95
53667;BMP280;39568;51.026;5.468;2023-07-13T14:26:35;100979.31;;;19.16
53667;BMP280;39568;51.026;5.468;2023-07-13T14:29:10;100995.63;;;19.41
53667;BMP280;39568;51.026;5.468;2023-07-13T14:31:38;100980.00;;;19.40
53667;BMP280;39568;51.026;5.468;2023-07-13T14:34:05;100987.19;;;19.37
53667;BMP280;39568;51.026;5.468;2023-07-13T14:36:34;100990.78;;;19.40
53667;BMP280;39568;51.026;5.468;2023-07-13T14:39:11;100988.66;;;19.23
53667;BMP280;39568;51.026;5.468;2023-07-13T14:41:38;100994.91;;;19.48
53667;BMP280;39568;51.026;5.468;2023-07-13T14:44:15;100980.69;;;19.55
53667;BMP280;39568;51.026;5.468;2023-07-13T14:46:43;100987.56;;;19.96
53667;BMP280;39568;51.026;5.468;2023-07-13T14:49:15;100981.50;;;20.20
53667;BMP280;39568;51.026;5.468;2023-07-13T14:51:43;100977.44;;;20.44
53667;BMP280;39568;51.026;5.468;2023-07-13T14:54:10;100971.91;;;20.83
53667;BMP280;39568;51.026;5.468;2023-07-13T14:56:37;100972.50;;;20.74
53667;BMP280;39568;51.026;5.468;2023-07-13T14:59:06;100963.97;;;20.61
53667;BMP280;39568;51.026;5.468;2023-07-13T15:01:34;100967.38;;;20.86
53667;BMP280;39568;51.026;5.468;2023-07-13T15:04:05;100967.88;;;20.92
53667;BMP280;39568;51.026;5.468;2023-07-13T15:06:53;100969.88;;;20.91
53667;BMP280;39568;51.026;5.468;2023-07-13T15:09:20;100966.88;;;21.22
53667;BMP280;39568;51.026;5.468;2023-07-13T15:11:49;100958.28;;;21.33
53667;BMP280;39568;51.026;5.468;2023-07-13T15:14:16;100960.81;;;21.65
53667;BMP280;39568;51.026;5.468;2023-07-13T15:16:45;100954.69;;;21.91
53667;BMP280;39568;51.026;5.468;2023-07-13T15:19:13;100959.88;;;22.06
53667;BMP280;39568;51.026;5.468;2023-07-13T15:21:44;100955.84;;;21.98
53667;BMP280;39568;51.026;5.468;2023-07-13T15:24:11;100965.59;;;22.01
53667;BMP280;39568;51.026;5.468;2023-07-13T15:26:39;100960.88;;;22.01
53667;BMP280;39568;51.026;5.468;2023-07-13T15:29:10;100958.56;;;22.24
53667;BMP280;39568;51.026;5.468;2023-07-13T15:31:40;100964.19;;;22.09
53667;BMP280;39568;51.026;5.468;2023-07-13T15:34:13;100950.84;;;22.76
53667;BMP280;39568;51.026;5.468;2023-07-13T15:36:40;100952.72;;;22.93
53667;BMP280;39568;51.026;5.468;2023-07-13T15:39:13;100955.38;;;23.78
53667;BMP280;39568;51.026;5.468;2023-07-13T15:41:40;100959.91;;;24.26
53667;BMP280;39568;51.026;5.468;2023-07-13T15:44:23;100959.44;;;25.58
53667;BMP280;39568;51.026;5.468;2023-07-13T15:46:51;100946.53;;;25.47
53667;BMP280;39568;51.026;5.468;2023-07-13T15:49:19;100941.69;;;25.80
53667;BMP280;39568;51.026;5.468;2023-07-13T15:51:49;100944.22;;;26.47
53667;BMP280;39568;51.026;5.468;2023-07-13T15:54:18;100946.78;;;25.51
53667;BMP280;39568;51.026;5.468;2023-07-13T15:56:51;100943.09;;;25.46
53667;BMP280;39568;51.026;5.468;2023-07-13T15:59:19;100942.84;;;25.42
53667;BMP280;39568;51.026;5.468;2023-07-13T16:01:46;100936.72;;;25.76
53667;BMP280;39568;51.026;5.468;2023-07-13T16:04:15;100931.50;;;25.92
53667;BMP280;39568;51.026;5.468;2023-07-13T16:06:46;100931.22;;;25.42
53667;BMP280;39568;51.026;5.468;2023-07-13T16:09:17;100938.34;;;25.58
53667;BMP280;39568;51.026;5.468;2023-07-13T16:11:50;100931.84;;;25.75
53667;BMP280;39568;51.026;5.468;2023-07-13T16:14:17;100940.34;;;24.69
53667;BMP280;39568;51.026;5.468;2023-07-13T16:16:46;100943.06;;;25.02
53667;BMP280;39568;51.026;5.468;2023-07-13T16:19:16;100927.81;;;25.53